Time;durP1;ratioP1;P1;durP2;ratioP2;P2;SDS_P1;SDS_P2;PMS_P1;PMS_P2;Temp;Humidity;BMP_temperature;BMP_pressure;BME280_temperature;BME280_humidity;BME280_pressure;Samples;Min_cycle;Max_cycle;Signal;HPM_P1;HPM_P2
2024/02/26 00:01:06;;;;;;;2.15;1.98;;;;;;;;;;10065152;28;20448;-75
2024/02/26 00:06:00;;;;;;;2.20;2.00;;;;;;;;;;10062177;28;20060;-77
2024/02/26 00:10:54;;;;;;;6.03;2.95;;;;;;;;;;10061867;28;20060;-77
2024/02/26 00:15:47;;;;;;;2.22;1.90;;;;;;;;;;10064449;28;20136;-77
2024/02/26 00:20:43;;;;;;;4.75;2.25;;;;;;;;;;10064753;28;20054;-77
2024/02/26 00:25:38;;;;;;;3.85;1.90;;;;;;;;;;10063975;28;20050;-75
2024/02/26 00:30:31;;;;;;;4.88;2.17;;;;;;;;;;10064834;28;20053;-76
2024/02/26 00:35:26;;;;;;;4.40;3.67;;;;;;;;;;10064311;28;20171;-78
2024/02/26 00:40:19;;;;;;;3.42;3.13;;;;;;;;;;10072292;28;20114;-76
2024/02/26 00:45:16;;;;;;;2.45;2.22;;;;;;;;;;10071869;28;20053;-76
2024/02/26 00:50:10;;;;;;;2.83;2.50;;;;;;;;;;10071924;28;20394;-76
2024/02/26 00:55:06;;;;;;;5.03;3.03;;;;;;;;;;10072081;28;20072;-77
2024/02/26 01:00:00;;;;;;;2.60;2.22;;;;;;;;;;10072174;28;20491;-78
2024/02/26 01:04:55;;;;;;;3.30;1.95;;;;;;;;;;10072154;28;20405;-76
2024/02/26 01:09:49;;;;;;;3.42;2.47;;;;;;;;;;10071607;28;20156;-77
2024/02/26 01:14:43;;;;;;;2.40;2.00;;;;;;;;;;10070936;28;20559;-77
2024/02/26 01:19:37;;;;;;;3.53;2.17;;;;;;;;;;10070693;28;20060;-78
2024/02/26 01:24:32;;;;;;;5.47;2.60;;;;;;;;;;10071050;28;20049;-77
2024/02/26 01:29:26;;;;;;;3.40;2.35;;;;;;;;;;10070543;28;20057;-80
2024/02/26 01:34:20;;;;;;;5.10;2.47;;;;;;;;;;10070813;28;20065;-80
2024/02/26 01:39:15;;;;;;;3.90;2.33;;;;;;;;;;10070425;28;20045;-78
2024/02/26 01:44:08;;;;;;;3.70;2.97;;;;;;;;;;10070311;28;20061;-79
2024/02/26 01:49:03;;;;;;;2.78;2.58;;;;;;;;;;10067048;28;20061;-80
2024/02/26 01:53:59;;;;;;;3.60;2.65;;;;;;;;;;10068714;28;20071;-79
2024/02/26 01:58:53;;;;;;;1.58;1.48;;;;;;;;;;10065300;28;20049;-80
2024/02/26 02:03:47;;;;;;;3.08;1.60;;;;;;;;;;10061942;28;20140;-80
2024/02/26 02:08:41;;;;;;;1.70;1.38;;;;;;;;;;10069195;28;20045;-79
2024/02/26 02:13:35;;;;;;;1.50;1.40;;;;;;;;;;10069033;28;20076;-80
2024/02/26 02:18:28;;;;;;;1.50;1.40;;;;;;;;;;10069068;28;20057;-80
2024/02/26 02:23:24;;;;;;;2.05;1.73;;;;;;;;;;10069126;28;20053;-79
2024/02/26 02:28:17;;;;;;;1.45;1.40;;;;;;;;;;10068616;28;20045;-80
2024/02/26 02:33:12;;;;;;;1.50;1.40;;;;;;;;;;10067566;28;20239;-80
2024/02/26 02:38:06;;;;;;;2.35;1.90;;;;;;;;;;10067865;28;20053;-82
2024/02/26 02:43:01;;;;;;;4.32;2.38;;;;;;;;;;10067480;28;20120;-80
2024/02/26 02:47:56;;;;;;;4.05;1.83;;;;;;;;;;10068185;28;20079;-80
2024/02/26 02:52:50;;;;;;;2.08;1.88;;;;;;;;;;10067376;28;20734;-80
2024/02/26 02:57:44;;;;;;;2.15;2.05;;;;;;;;;;10067545;28;20057;-81
2024/02/26 03:02:39;;;;;;;1.92;1.80;;;;;;;;;;10053572;28;20049;-79
2024/02/26 03:07:32;;;;;;;2.88;2.58;;;;;;;;;;10067355;28;20084;-79
2024/02/26 03:12:27;;;;;;;1.77;1.65;;;;;;;;;;10067325;28;20045;-80
2024/02/26 03:17:24;;;;;;;1.48;1.38;;;;;;;;;;10067093;28;20049;-78
2024/02/26 03:22:18;;;;;;;2.60;1.70;;;;;;;;;;10066996;28;20080;-79
2024/02/26 03:27:11;;;;;;;4.35;2.90;;;;;;;;;;10065952;28;20052;-79
2024/02/26 03:32:08;;;;;;;5.80;2.15;;;;;;;;;;10066191;28;20057;-79
2024/02/26 03:37:03;;;;;;;1.85;1.75;;;;;;;;;;10065971;28;20053;-79
2024/02/26 03:41:57;;;;;;;2.05;1.67;;;;;;;;;;10066436;28;20061;-79
2024/02/26 03:46:52;;;;;;;10.52;1.80;;;;;;;;;;10066568;28;20057;-79
2024/02/26 03:51:46;;;;;;;2.85;2.03;;;;;;;;;;10065938;28;20064;-81
2024/02/26 03:56:40;;;;;;;2.33;1.77;;;;;;;;;;10065709;28;20111;-80
2024/02/26 04:01:34;;;;;;;2.13;1.42;;;;;;;;;;10064669;28;20045;-82
2024/02/26 04:06:29;;;;;;;1.88;1.77;;;;;;;;;;10063724;28;20500;-81
2024/02/26 04:11:23;;;;;;;1.92;1.33;;;;;;;;;;10066635;28;20065;-79
2024/02/26 04:16:17;;;;;;;1.73;1.63;;;;;;;;;;10071342;28;20049;-81
2024/02/26 04:21:11;;;;;;;2.58;1.52;;;;;;;;;;10070105;28;20295;-80
2024/02/26 04:26:05;;;;;;;1.83;1.73;;;;;;;;;;10069482;28;20484;-79
2024/02/26 04:31:00;;;;;;;2.13;1.50;;;;;;;;;;10070689;28;20115;-81
2024/02/26 04:35:54;;;;;;;1.88;1.40;;;;;;;;;;10070422;28;20049;-80
2024/02/26 04:40:48;;;;;;;2.72;2.17;;;;;;;;;;10069468;28;20057;-80
2024/02/26 04:45:42;;;;;;;4.00;2.03;;;;;;;;;;10069824;28;20057;-81
2024/02/26 04:50:36;;;;;;;3.72;2.40;;;;;;;;;;10070298;28;20417;-80
2024/02/26 04:55:31;;;;;;;2.13;2.03;;;;;;;;;;10070679;28;20460;-78
2024/02/26 05:00:25;;;;;;;2.75;2.20;;;;;;;;;;10069644;28;20045;-80
2024/02/26 05:05:19;;;;;;;6.45;2.97;;;;;;;;;;10068919;28;20065;-78
2024/02/26 05:10:13;;;;;;;1.90;1.80;;;;;;;;;;10068426;28;20490;-80
2024/02/26 05:15:09;;;;;;;4.03;2.33;;;;;;;;;;10068883;28;20050;-78
2024/02/26 05:20:07;;;;;;;2.85;2.00;;;;;;;;;;10068569;28;20046;-79
2024/02/26 05:25:03;;;;;;;1.90;1.80;;;;;;;;;;10068167;28;20133;-79
2024/02/26 05:29:57;;;;;;;5.75;3.28;;;;;;;;;;10068193;28;20056;-80
2024/02/26 05:34:52;;;;;;;2.50;1.90;;;;;;;;;;10068345;28;20471;-80
2024/02/26 05:39:46;;;;;;;3.05;2.75;;;;;;;;;;10068328;28;20067;-80
2024/02/26 05:44:40;;;;;;;2.95;2.20;;;;;;;;;;10066578;28;20136;-79
2024/02/26 05:49:33;;;;;;;32.03;23.88;;;;;;;;;;10063896;28;20489;-80
2024/02/26 05:54:27;;;;;;;5.88;3.80;;;;;;;;;;10070580;28;20121;-80
2024/02/26 05:59:22;;;;;;;7.80;4.28;;;;;;;;;;10062432;28;20111;-79
2024/02/26 06:04:17;;;;;;;7.22;4.82;;;;;;;;;;10066719;28;20405;-80
2024/02/26 06:09:11;;;;;;;5.30;3.75;;;;;;;;;;10063792;28;20061;-81
2024/02/26 06:14:05;;;;;;;5.75;4.18;;;;;;;;;;10066831;28;20413;-80
2024/02/26 06:19:00;;;;;;;7.30;6.53;;;;;;;;;;10067713;28;20053;-81
2024/02/26 06:23:54;;;;;;;5.18;4.68;;;;;;;;;;10066691;28;20140;-80
2024/02/26 06:28:48;;;;;;;4.70;4.20;;;;;;;;;;10052753;28;20052;-80
2024/02/26 06:33:42;;;;;;;6.50;5.30;;;;;;;;;;10063338;28;20049;-80
2024/02/26 06:38:36;;;;;;;9.75;6.35;;;;;;;;;;10056438;28;20057;-80
2024/02/26 06:43:30;;;;;;;7.40;6.38;;;;;;;;;;10066987;28;20557;-81
2024/02/26 06:48:25;;;;;;;6.82;5.78;;;;;;;;;;10069373;28;20045;-81
2024/02/26 06:53:19;;;;;;;7.22;6.50;;;;;;;;;;10068556;28;20050;-79
2024/02/26 06:58:14;;;;;;;8.25;6.40;;;;;;;;;;10073478;28;20053;-81
2024/02/26 07:03:08;;;;;;;17.70;15.38;;;;;;;;;;10067246;28;20129;-79
2024/02/26 07:08:03;;;;;;;18.50;13.65;;;;;;;;;;10065111;28;20054;-79
2024/02/26 07:12:58;;;;;;;53.97;43.78;;;;;;;;;;10054508;28;20055;-80
2024/02/26 07:17:55;;;;;;;30.48;20.13;;;;;;;;;;10046202;28;20144;-80
2024/02/26 07:22:49;;;;;;;13.00;8.57;;;;;;;;;;10055986;28;20497;-83
2024/02/26 07:27:43;;;;;;;11.85;10.07;;;;;;;;;;10056459;28;20507;-81
2024/02/26 07:32:37;;;;;;;12.18;9.70;;;;;;;;;;10061438;28;20116;-81
2024/02/26 07:37:31;;;;;;;12.63;9.43;;;;;;;;;;10050810;28;20084;-78
2024/02/26 07:42:25;;;;;;;14.45;10.63;;;;;;;;;;10041885;28;20658;-81
2024/02/26 07:47:21;;;;;;;18.40;11.23;;;;;;;;;;10051865;28;20055;-79
2024/02/26 07:52:15;;;;;;;11.32;9.93;;;;;;;;;;10062448;28;20049;-80
2024/02/26 07:57:08;;;;;;;9.95;9.00;;;;;;;;;;10062128;28;20464;-79
2024/02/26 08:02:03;;;;;;;10.68;9.60;;;;;;;;;;10063395;28;20049;-79
2024/02/26 08:06:57;;;;;;;14.05;11.85;;;;;;;;;;10062322;28;20042;-78
2024/02/26 08:11:51;;;;;;;15.35;12.73;;;;;;;;;;10061528;28;20417;-77
2024/02/26 08:16:46;;;;;;;14.20;11.70;;;;;;;;;;10057103;28;20053;-77
2024/02/26 08:21:40;;;;;;;14.85;12.32;;;;;;;;;;10059858;28;20100;-79
2024/02/26 08:26:34;;;;;;;13.15;9.98;;;;;;;;;;10060986;28;20060;-78
2024/02/26 08:31:28;;;;;;;16.25;12.18;;;;;;;;;;10062404;28;20095;-77
2024/02/26 08:36:22;;;;;;;16.38;10.52;;;;;;;;;;10059976;28;20049;-79
2024/02/26 08:41:17;;;;;;;11.68;9.13;;;;;;;;;;10056319;28;20417;-78
2024/02/26 08:46:13;;;;;;;18.83;12.00;;;;;;;;;;10047315;28;20060;-78
2024/02/26 08:51:08;;;;;;;18.73;8.52;;;;;;;;;;10056893;28;20535;-79
2024/02/26 08:56:03;;;;;;;12.00;8.82;;;;;;;;;;10057731;28;20049;-78
2024/02/26 09:00:58;;;;;;;11.60;8.65;;;;;;;;;;10069482;28;20054;-78
2024/02/26 09:05:52;;;;;;;16.15;8.00;;;;;;;;;;10070411;28;20502;-77
2024/02/26 09:10:45;;;;;;;8.38;7.47;;;;;;;;;;10068594;28;20038;-78
2024/02/26 09:15:43;;;;;;;12.38;8.38;;;;;;;;;;10069619;28;20136;-77
2024/02/26 09:20:37;;;;;;;7.10;6.45;;;;;;;;;;10069987;28;20064;-77
2024/02/26 09:25:31;;;;;;;11.95;8.05;;;;;;;;;;10059305;28;20505;-77
2024/02/26 09:30:24;;;;;;;12.13;8.90;;;;;;;;;;10068311;28;20419;-79
2024/02/26 09:35:18;;;;;;;7.95;7.15;;;;;;;;;;10068210;28;20053;-77
2024/02/26 09:40:13;;;;;;;11.32;7.85;;;;;;;;;;10068186;28;20069;-77
2024/02/26 09:45:10;;;;;;;9.23;8.15;;;;;;;;;;10068897;28;20079;-77
2024/02/26 09:50:08;;;;;;;8.50;6.80;;;;;;;;;;10066772;28;20049;-77
2024/02/26 09:55:04;;;;;;;9.93;8.20;;;;;;;;;;10066682;28;20460;-80
2024/02/26 10:00:03;;;;;;;9.48;7.05;;;;;;;;;;10068202;28;20049;-78
2024/02/26 10:05:05;;;;;;;9.98;8.93;;;;;;;;;;10064893;28;20053;-76
2024/02/26 10:09:58;;;;;;;8.98;8.07;;;;;;;;;;10062464;28;20053;-78
2024/02/26 10:14:52;;;;;;;8.98;8.02;;;;;;;;;;10063515;28;20080;-79
2024/02/26 10:19:46;;;;;;;10.07;7.50;;;;;;;;;;10065122;28;20099;-79
2024/02/26 10:24:41;;;;;;;10.65;7.63;;;;;;;;;;10066599;28;20521;-80
2024/02/26 10:29:34;;;;;;;9.52;7.47;;;;;;;;;;10066976;28;20034;-79
2024/02/26 10:34:29;;;;;;;10.32;7.43;;;;;;;;;;10065899;28;20053;-79
2024/02/26 11:19:43;;;;;;;8.93;6.00;;;;;;;;;;10010853;28;20088;-81
2024/02/26 11:24:41;;;;;;;6.68;5.88;;;;;;;;;;10061738;28;20041;-81
2024/02/26 11:29:50;;;;;;;6.32;5.20;;;;;;;;;;10064246;28;20069;-80
2024/02/26 11:34:45;;;;;;;10.32;5.38;;;;;;;;;;10062908;28;20096;-81
2024/02/26 11:39:44;;;;;;;8.95;5.38;;;;;;;;;;10064633;28;20050;-83
2024/02/26 11:44:39;;;;;;;10.57;5.28;;;;;;;;;;10064361;28;20049;-83
2024/02/26 11:49:33;;;;;;;5.72;5.15;;;;;;;;;;10064050;28;20045;-82
2024/02/26 11:54:48;;;;;;;9.75;4.40;;;;;;;;;;10053608;28;20060;-81
2024/02/26 11:59:45;;;;;;;7.63;4.40;;;;;;;;;;10063326;28;20049;-81
2024/02/26 12:04:39;;;;;;;101.53;36.17;;;;;;;;;;10062708;28;20405;-81
2024/02/26 12:09:34;;;;;;;4.43;4.03;;;;;;;;;;10063332;28;20511;-81
2024/02/26 12:14:29;;;;;;;5.70;5.00;;;;;;;;;;10063186;28;20128;-81
2024/02/26 12:19:22;;;;;;;4.93;4.43;;;;;;;;;;10062887;28;20143;-84
2024/02/26 12:24:19;;;;;;;8.27;4.75;;;;;;;;;;10060702;28;20076;-81
2024/02/26 12:29:13;;;;;;;5.07;4.22;;;;;;;;;;10063015;28;20098;-81
2024/02/26 12:34:09;;;;;;;6.03;4.38;;;;;;;;;;10066636;28;20045;-80
2024/02/26 12:39:05;;;;;;;7.55;5.82;;;;;;;;;;10071105;28;20309;-82
2024/02/26 12:44:00;;;;;;;11.10;5.47;;;;;;;;;;10069663;28;20424;-82
2024/02/26 12:48:58;;;;;;;9.00;5.80;;;;;;;;;;10071943;28;20050;-83
2024/02/26 12:53:54;;;;;;;5.75;4.47;;;;;;;;;;10069995;28;20046;-82
2024/02/26 12:58:51;;;;;;;4.68;3.63;;;;;;;;;;10070067;28;20081;-83
2024/02/26 13:03:45;;;;;;;8.60;5.38;;;;;;;;;;10070595;28;20712;-84
2024/02/26 13:08:40;;;;;;;6.15;4.05;;;;;;;;;;10068754;28;20055;-82
2024/02/26 13:13:34;;;;;;;5.38;4.05;;;;;;;;;;10069606;28;20096;-83
2024/02/26 13:18:30;;;;;;;4.25;3.83;;;;;;;;;;10069425;28;20076;-81
2024/02/26 13:23:25;;;;;;;5.55;4.97;;;;;;;;;;10065881;28;20061;-82
2024/02/26 13:28:19;;;;;;;6.68;3.67;;;;;;;;;;10070090;28;20085;-87
2024/02/26 13:33:13;;;;;;;4.78;4.25;;;;;;;;;;10067322;28;20049;-83
2024/02/26 13:38:08;;;;;;;8.88;5.82;;;;;;;;;;10068925;28;20505;-83
2024/02/26 13:43:01;;;;;;;6.72;6.00;;;;;;;;;;10067706;28;20049;-85
2024/02/26 13:48:02;;;;;;;8.65;6.82;;;;;;;;;;10068296;28;20057;-82
2024/02/26 13:52:57;;;;;;;699.35;127.53;;;;;;;;;;10070167;28;20045;-84
2024/02/26 13:57:53;;;;;;;10.35;7.57;;;;;;;;;;10067910;28;20053;-81
2024/02/26 14:02:47;;;;;;;7.45;6.13;;;;;;;;;;10070534;28;20076;-82
2024/02/26 14:07:41;;;;;;;30.20;26.23;;;;;;;;;;10068136;28;20045;-82
2024/02/26 14:12:35;;;;;;;12.65;6.35;;;;;;;;;;10067598;28;20052;-83
2024/02/26 14:17:30;;;;;;;7.90;6.25;;;;;;;;;;10066953;28;20125;-82
2024/02/26 14:22:26;;;;;;;8.85;7.95;;;;;;;;;;10065661;28;20512;-80
2024/02/26 14:27:22;;;;;;;14.60;8.63;;;;;;;;;;10066891;28;20143;-82
2024/02/26 14:32:16;;;;;;;9.32;7.15;;;;;;;;;;10065502;28;20136;-84
2024/02/26 14:37:10;;;;;;;11.50;7.05;;;;;;;;;;10066219;28;20046;-83
2024/02/26 14:42:04;;;;;;;132.60;46.47;;;;;;;;;;10067133;28;20060;-84
2024/02/26 14:46:59;;;;;;;12.63;7.30;;;;;;;;;;10064619;28;20172;-84
2024/02/26 14:51:53;;;;;;;7.93;6.85;;;;;;;;;;10063585;28;20045;-83
2024/02/26 14:56:48;;;;;;;10.18;6.93;;;;;;;;;;10063918;28;20049;-85
2024/02/26 15:01:45;;;;;;;12.55;7.22;;;;;;;;;;10060902;28;20458;-84
2024/02/26 15:06:40;;;;;;;9.73;7.25;;;;;;;;;;10057712;28;20396;-88
2024/02/26 15:11:39;;;;;;;16.58;8.63;;;;;;;;;;10059970;28;20161;-87
2024/02/26 15:16:33;;;;;;;12.50;6.53;;;;;;;;;;10058047;28;20049;-87
2024/02/26 15:21:27;;;;;;;9.40;6.05;;;;;;;;;;10065481;28;20064;-82
2024/02/26 15:26:22;;;;;;;13.52;7.85;;;;;;;;;;10062761;28;20065;-84
2024/02/26 15:31:20;;;;;;;9.13;5.97;;;;;;;;;;10064911;28;20140;-85
2024/02/26 15:36:14;;;;;;;8.17;6.43;;;;;;;;;;10065447;28;20168;-84
2024/02/26 15:41:12;;;;;;;8.43;5.63;;;;;;;;;;10063480;28;20041;-83
2024/02/26 15:46:06;;;;;;;7.32;4.20;;;;;;;;;;10061013;28;20053;-84
2024/02/26 15:50:59;;;;;;;6.10;3.45;;;;;;;;;;10064419;28;20037;-83
2024/02/26 15:55:53;;;;;;;4.60;2.80;;;;;;;;;;10063694;28;20069;-83
2024/02/26 16:00:48;;;;;;;13.90;4.32;;;;;;;;;;10064224;28;20107;-84
2024/02/26 16:05:41;;;;;;;52.30;12.55;;;;;;;;;;10063937;28;20489;-84
2024/02/26 16:10:35;;;;;;;3.92;3.53;;;;;;;;;;10069778;28;20068;-83
2024/02/26 16:15:29;;;;;;;9.13;6.55;;;;;;;;;;10072732;28;20052;-84
2024/02/26 16:20:29;;;;;;;7.07;6.47;;;;;;;;;;10065681;28;20064;-84
2024/02/26 16:25:23;;;;;;;6.05;5.18;;;;;;;;;;10066838;28;20432;-84
2024/02/26 16:30:17;;;;;;;81.88;11.52;;;;;;;;;;10070502;28;20049;-84
2024/02/26 16:35:11;;;;;;;7.55;5.13;;;;;;;;;;10069474;28;20045;-87
2024/02/26 16:40:11;;;;;;;7.63;5.82;;;;;;;;;;10070347;28;20066;-87
2024/02/26 16:45:22;;;;;;;11.23;9.88;;;;;;;;;;10071039;28;20053;-86
2024/02/26 16:50:16;;;;;;;16.40;9.02;;;;;;;;;;10070971;28;20053;-86
2024/02/26 16:55:13;;;;;;;15.45;12.38;;;;;;;;;;10070153;28;20048;-83
2024/02/26 17:00:10;;;;;;;6.78;5.50;;;;;;;;;;10065883;28;20055;-83
2024/02/26 17:05:07;;;;;;;9.02;4.70;;;;;;;;;;10069041;28;20478;-84
2024/02/26 17:10:01;;;;;;;7.30;6.10;;;;;;;;;;10070696;28;20048;-84
2024/02/26 17:14:55;;;;;;;10.60;9.57;;;;;;;;;;10069834;28;20549;-85
2024/02/26 17:19:49;;;;;;;6.07;5.45;;;;;;;;;;10067016;28;20124;-84
2024/02/26 17:24:45;;;;;;;16.80;11.35;;;;;;;;;;10067665;28;20049;-84
2024/02/26 17:29:39;;;;;;;7.53;5.90;;;;;;;;;;10065980;28;20128;-84
2024/02/26 17:34:35;;;;;;;7.50;6.15;;;;;;;;;;10068867;28;20051;-83
2024/02/26 17:39:29;;;;;;;9.95;6.47;;;;;;;;;;10070326;28;20079;-85
2024/02/26 17:44:25;;;;;;;8.38;5.07;;;;;;;;;;10071553;28;20417;-83
2024/02/26 17:49:23;;;;;;;7.95;6.38;;;;;;;;;;10072028;28;20049;-86
2024/02/26 17:54:17;;;;;;;11.50;6.40;;;;;;;;;;10070062;28;20077;-82
2024/02/26 17:59:11;;;;;;;9.77;6.03;;;;;;;;;;10067616;28;20042;-83
2024/02/26 18:04:05;;;;;;;11.32;8.02;;;;;;;;;;10067540;28;20045;-82
2024/02/26 18:09:00;;;;;;;6.90;6.20;;;;;;;;;;10067461;28;20461;-84
2024/02/26 18:13:53;;;;;;;8.25;5.63;;;;;;;;;;10067394;28;20073;-83
2024/02/26 18:18:47;;;;;;;11.35;5.72;;;;;;;;;;10064238;28;20049;-84
2024/02/26 18:23:43;;;;;;;10.25;6.45;;;;;;;;;;10061400;28;20522;-83
2024/02/26 18:28:36;;;;;;;12.77;10.75;;;;;;;;;;10060322;28;20528;-83
2024/02/26 18:33:30;;;;;;;8.65;6.60;;;;;;;;;;10062574;28;20053;-84
2024/02/26 18:38:24;;;;;;;13.85;7.88;;;;;;;;;;10062346;28;20401;-84
2024/02/26 18:43:19;;;;;;;17.25;11.98;;;;;;;;;;10060585;28;20057;-81
2024/02/26 18:48:13;;;;;;;12.65;10.63;;;;;;;;;;10057616;28;20045;-83
2024/02/26 18:53:07;;;;;;;10.35;7.93;;;;;;;;;;10060163;28;20073;-83
2024/02/26 18:58:03;;;;;;;12.43;7.22;;;;;;;;;;10061651;28;20060;-83
2024/02/26 19:02:58;;;;;;;10.18;8.90;;;;;;;;;;10065148;28;20063;-82
2024/02/26 19:07:58;;;;;;;9.70;7.70;;;;;;;;;;10063545;28;20452;-82
2024/02/26 19:12:51;;;;;;;7.43;5.95;;;;;;;;;;10061774;28;20051;-82
2024/02/26 19:17:45;;;;;;;9.38;8.00;;;;;;;;;;10062332;28;20041;-81
2024/02/26 19:22:42;;;;;;;10.85;9.05;;;;;;;;;;10062172;28;20068;-82
2024/02/26 19:27:36;;;;;;;21.25;13.75;;;;;;;;;;10059807;28;20302;-82
2024/02/26 19:32:30;;;;;;;21.30;12.98;;;;;;;;;;10064135;28;20045;-81
2024/02/26 19:37:25;;;;;;;12.35;8.80;;;;;;;;;;10064169;28;20050;-84
2024/02/26 19:42:19;;;;;;;11.88;10.68;;;;;;;;;;10059302;28;20413;-84
2024/02/26 19:47:13;;;;;;;16.13;12.35;;;;;;;;;;10064182;28;20081;-82
2024/02/26 19:52:09;;;;;;;16.63;10.20;;;;;;;;;;10063381;28;20049;-84
2024/02/26 19:57:05;;;;;;;18.20;14.70;;;;;;;;;;10055296;28;20519;-82
2024/02/26 20:01:59;;;;;;;14.93;11.70;;;;;;;;;;10075303;28;20064;-83
2024/02/26 20:06:53;;;;;;;17.20;13.32;;;;;;;;;;10062639;28;20050;-83
2024/02/26 20:11:47;;;;;;;23.13;14.35;;;;;;;;;;10058831;28;20292;-85
2024/02/26 20:16:42;;;;;;;14.73;13.23;;;;;;;;;;10059973;28;20497;-84
2024/02/26 20:21:39;;;;;;;18.55;15.93;;;;;;;;;;10054191;28;20057;-81
2024/02/26 20:26:37;;;;;;;15.23;13.30;;;;;;;;;;10060351;28;20408;-84
2024/02/26 20:31:31;;;;;;;32.85;23.23;;;;;;;;;;10060885;28;20049;-82
2024/02/26 20:36:26;;;;;;;25.38;20.90;;;;;;;;;;10056088;28;20119;-79
2024/02/26 20:41:22;;;;;;;38.22;24.02;;;;;;;;;;10059506;28;20145;-76
2024/02/26 20:46:17;;;;;;;34.92;22.60;;;;;;;;;;10061236;28;20053;-73
2024/02/26 20:51:11;;;;;;;42.85;22.88;;;;;;;;;;10062190;28;20450;-73
2024/02/26 20:56:07;;;;;;;23.38;20.00;;;;;;;;;;10067615;28;20049;-75
2024/02/26 21:01:01;;;;;;;20.35;17.35;;;;;;;;;;10066744;28;20444;-74
2024/02/26 21:05:57;;;;;;;22.02;18.05;;;;;;;;;;10069338;28;20413;-74
2024/02/26 21:10:51;;;;;;;28.10;20.60;;;;;;;;;;10068972;28;20049;-74
2024/02/26 21:15:46;;;;;;;14.98;11.63;;;;;;;;;;10069191;28;20076;-73
2024/02/26 21:20:40;;;;;;;20.55;16.77;;;;;;;;;;10064287;28;20056;-74
2024/02/26 21:25:34;;;;;;;38.78;24.83;;;;;;;;;;10068670;28;20103;-74
2024/02/26 21:30:29;;;;;;;15.98;13.48;;;;;;;;;;10059214;28;20050;-71
2024/02/26 21:35:23;;;;;;;16.13;11.90;;;;;;;;;;10063747;28;20045;-73
2024/02/26 21:40:17;;;;;;;18.70;12.85;;;;;;;;;;10061301;28;20045;-74
2024/02/26 21:45:11;;;;;;;17.58;10.68;;;;;;;;;;10063613;28;20119;-74
2024/02/26 21:50:08;;;;;;;19.13;16.08;;;;;;;;;;10064583;28;20057;-75
2024/02/26 21:55:03;;;;;;;15.55;12.60;;;;;;;;;;10066446;28;20056;-74
2024/02/26 21:59:57;;;;;;;25.10;11.77;;;;;;;;;;10063710;28;20449;-73
2024/02/26 22:04:53;;;;;;;13.88;11.10;;;;;;;;;;10065995;28;20451;-72
2024/02/26 22:09:47;;;;;;;30.65;23.02;;;;;;;;;;10061005;28;20049;-73
2024/02/26 22:14:44;;;;;;;19.67;14.50;;;;;;;;;;10063842;28;20099;-72
2024/02/26 22:19:38;;;;;;;27.88;21.73;;;;;;;;;;10065480;28;20099;-74
2024/02/26 22:24:34;;;;;;;30.75;19.00;;;;;;;;;;10059528;28;20056;-73
2024/02/26 22:29:28;;;;;;;31.83;23.25;;;;;;;;;;10064827;28;20051;-72
2024/02/26 22:34:22;;;;;;;24.67;16.98;;;;;;;;;;10062126;28;20053;-74
2024/02/26 22:39:17;;;;;;;18.55;11.80;;;;;;;;;;10047488;28;20545;-73
2024/02/26 22:44:11;;;;;;;206.77;57.78;;;;;;;;;;10050335;28;20558;-72
2024/02/26 22:49:07;;;;;;;12.00;9.98;;;;;;;;;;10048432;28;20048;-73
2024/02/26 22:54:01;;;;;;;15.57;10.55;;;;;;;;;;10044733;28;20068;-73
2024/02/26 22:58:56;;;;;;;28.15;10.43;;;;;;;;;;10044232;28;20096;-73
2024/02/26 23:03:50;;;;;;;12.60;8.23;;;;;;;;;;10040319;28;20049;-73
2024/02/26 23:08:44;;;;;;;12.55;8.15;;;;;;;;;;10060374;28;20049;-74
2024/02/26 23:13:41;;;;;;;9.50;7.47;;;;;;;;;;10057349;28;20060;-73
2024/02/26 23:18:36;;;;;;;18.02;12.05;;;;;;;;;;10062349;28;20417;-73
2024/02/26 23:23:30;;;;;;;15.23;7.68;;;;;;;;;;10057296;28;20066;-73
2024/02/26 23:28:24;;;;;;;9.30;7.20;;;;;;;;;;10054673;28;20042;-73
2024/02/26 23:33:18;;;;;;;10.52;7.60;;;;;;;;;;10054213;28;20053;-74
2024/02/26 23:38:13;;;;;;;21.35;16.60;;;;;;;;;;10056684;28;20049;-73
2024/02/26 23:43:06;;;;;;;38.22;17.13;;;;;;;;;;10064816;28;20054;-74
2024/02/26 23:48:02;;;;;;;26.50;15.77;;;;;;;;;;10059875;28;20140;-75
2024/02/26 23:52:59;;;;;;;82.93;19.98;;;;;;;;;;10056714;28;20057;-74
2024/02/26 23:57:54;;;;;;;28.23;14.00;;;;;;;;;;10062327;28;20056;-73
